Iver, United Kingdom
Current Conditions -  °F | °C
As of 4:20 PM on Tuesday 21 Oct 2014 (Local Time) from EGLL Reporting Station
Scattered Clouds Scattered Clouds  
Wind Chill: 13°   Ceiling: Unl
Heat Index: 13°   Visibility: 6mi
Dew Point:   Wind: 22mph
Humidity: 54%   Direction: 290°WNW
Pressure: 29.83"   Gusts: 35mph
Location:  51.5°N, 0.5°W
Report Text: EGLL 211520Z 29019G30KT 9999 SCT047 13/04 Q1010 TEMPO SHRA
Loading
Personal Weather Stations






























Interactive Weather Map
Tropical Storm Tracking
New forecast layout! Learn more

10-Day Weather Forecast

Advertisements
Track Severe Weather on mobile